sensor_id;sensor_type;location;lat;lon;timestamp;P1;durP1;ratioP1;P2;durP2;ratioP2
53299;SDS011;39187;48.476;8.310;2022-11-20T00:02:24;7.30;;;5.60;;
53299;SDS011;39187;48.476;8.310;2022-11-20T00:04:51;4.90;;;4.60;;
53299;SDS011;39187;48.476;8.310;2022-11-20T00:07:17;4.80;;;4.50;;
53299;SDS011;39187;48.476;8.310;2022-11-20T00:09:42;6.30;;;5.90;;
53299;SDS011;39187;48.476;8.310;2022-11-20T00:12:08;5.20;;;4.37;;
53299;SDS011;39187;48.476;8.310;2022-11-20T00:14:34;5.77;;;4.97;;
53299;SDS011;39187;48.476;8.310;2022-11-20T00:16:59;5.40;;;4.80;;
53299;SDS011;39187;48.476;8.310;2022-11-20T00:19:25;4.80;;;4.60;;
53299;SDS011;39187;48.476;8.310;2022-11-20T00:21:51;4.13;;;3.90;;
53299;SDS011;39187;48.476;8.310;2022-11-20T00:24:18;4.70;;;4.50;;
53299;SDS011;39187;48.476;8.310;2022-11-20T00:26:44;3.87;;;3.67;;
53299;SDS011;39187;48.476;8.310;2022-11-20T00:29:10;3.43;;;3.20;;
53299;SDS011;39187;48.476;8.310;2022-11-20T00:31:36;3.50;;;3.40;;
53299;SDS011;39187;48.476;8.310;2022-11-20T00:34:01;4.10;;;3.90;;
53299;SDS011;39187;48.476;8.310;2022-11-20T00:36:28;4.03;;;3.83;;
53299;SDS011;39187;48.476;8.310;2022-11-20T00:38:57;3.10;;;3.00;;
53299;SDS011;39187;48.476;8.310;2022-11-20T00:41:23;3.17;;;3.07;;
53299;SDS011;39187;48.476;8.310;2022-11-20T00:43:53;3.90;;;3.70;;
53299;SDS011;39187;48.476;8.310;2022-11-20T00:46:24;3.50;;;3.40;;
53299;SDS011;39187;48.476;8.310;2022-11-20T00:48:51;3.87;;;3.77;;
53299;SDS011;39187;48.476;8.310;2022-11-20T00:51:18;3.30;;;3.10;;
53299;SDS011;39187;48.476;8.310;2022-11-20T00:53:45;3.33;;;3.23;;
53299;SDS011;39187;48.476;8.310;2022-11-20T00:56:12;3.70;;;3.60;;
53299;SDS011;39187;48.476;8.310;2022-11-20T00:58:41;5.60;;;3.33;;
53299;SDS011;39187;48.476;8.310;2022-11-20T01:01:09;4.27;;;3.80;;
53299;SDS011;39187;48.476;8.310;2022-11-20T01:03:38;4.27;;;3.90;;
53299;SDS011;39187;48.476;8.310;2022-11-20T01:06:06;4.43;;;4.17;;
53299;SDS011;39187;48.476;8.310;2022-11-20T01:08:36;4.50;;;4.30;;
53299;SDS011;39187;48.476;8.310;2022-11-20T01:11:02;4.20;;;4.00;;
53299;SDS011;39187;48.476;8.310;2022-11-20T01:13:33;5.40;;;4.10;;
53299;SDS011;39187;48.476;8.310;2022-11-20T01:16:09;6.97;;;5.10;;
53299;SDS011;39187;48.476;8.310;2022-11-20T01:18:41;5.00;;;4.70;;
53299;SDS011;39187;48.476;8.310;2022-11-20T01:21:10;4.90;;;4.53;;
53299;SDS011;39187;48.476;8.310;2022-11-20T01:23:38;4.53;;;4.33;;
53299;SDS011;39187;48.476;8.310;2022-11-20T01:26:10;4.93;;;4.63;;
53299;SDS011;39187;48.476;8.310;2022-11-20T01:28:39;4.80;;;4.50;;
53299;SDS011;39187;48.476;8.310;2022-11-20T01:31:18;4.57;;;4.17;;
53299;SDS011;39187;48.476;8.310;2022-11-20T01:33:47;4.43;;;3.93;;
53299;SDS011;39187;48.476;8.310;2022-11-20T01:36:15;4.43;;;4.23;;
53299;SDS011;39187;48.476;8.310;2022-11-20T01:38:42;5.37;;;3.80;;
53299;SDS011;39187;48.476;8.310;2022-11-20T01:41:09;7.03;;;4.77;;
53299;SDS011;39187;48.476;8.310;2022-11-20T01:43:35;6.17;;;5.10;;
53299;SDS011;39187;48.476;8.310;2022-11-20T01:48:36;4.80;;;4.60;;
53299;SDS011;39187;48.476;8.310;2022-11-20T01:51:13;5.10;;;4.80;;
53299;SDS011;39187;48.476;8.310;2022-11-20T01:53:46;4.90;;;4.53;;
53299;SDS011;39187;48.476;8.310;2022-11-20T01:56:13;4.90;;;4.70;;
53299;SDS011;39187;48.476;8.310;2022-11-20T01:58:42;4.30;;;4.10;;
53299;SDS011;39187;48.476;8.310;2022-11-20T02:01:12;4.93;;;4.53;;
53299;SDS011;39187;48.476;8.310;2022-11-20T02:03:39;5.20;;;4.90;;
53299;SDS011;39187;48.476;8.310;2022-11-20T02:06:49;5.37;;;4.97;;
53299;SDS011;39187;48.476;8.310;2022-11-20T02:08:58;5.57;;;4.93;;
53299;SDS011;39187;48.476;8.310;2022-11-20T02:11:24;5.60;;;5.40;;
53299;SDS011;39187;48.476;8.310;2022-11-20T02:13:49;4.50;;;4.30;;
53299;SDS011;39187;48.476;8.310;2022-11-20T02:16:20;7.30;;;5.33;;
53299;SDS011;39187;48.476;8.310;2022-11-20T02:18:48;5.40;;;4.90;;
53299;SDS011;39187;48.476;8.310;2022-11-20T02:21:33;6.03;;;5.53;;
53299;SDS011;39187;48.476;8.310;2022-11-20T02:29:05;5.90;;;5.40;;
53299;SDS011;39187;48.476;8.310;2022-11-20T02:31:38;5.57;;;5.30;;
53299;SDS011;39187;48.476;8.310;2022-11-20T02:34:07;5.57;;;5.17;;
53299;SDS011;39187;48.476;8.310;2022-11-20T02:36:33;5.10;;;4.70;;
53299;SDS011;39187;48.476;8.310;2022-11-20T02:39:01;4.20;;;4.10;;
53299;SDS011;39187;48.476;8.310;2022-11-20T02:41:35;6.00;;;5.70;;
53299;SDS011;39187;48.476;8.310;2022-11-20T02:44:02;5.30;;;4.90;;
53299;SDS011;39187;48.476;8.310;2022-11-20T02:46:29;5.17;;;4.70;;
53299;SDS011;39187;48.476;8.310;2022-11-20T02:48:55;6.17;;;5.07;;
53299;SDS011;39187;48.476;8.310;2022-11-20T02:51:21;4.73;;;4.53;;
53299;SDS011;39187;48.476;8.310;2022-11-20T02:53:47;5.60;;;5.20;;
53299;SDS011;39187;48.476;8.310;2022-11-20T02:56:12;4.90;;;4.70;;
53299;SDS011;39187;48.476;8.310;2022-11-20T02:58:38;4.50;;;4.20;;
53299;SDS011;39187;48.476;8.310;2022-11-20T03:01:03;4.93;;;4.53;;
53299;SDS011;39187;48.476;8.310;2022-11-20T03:03:29;5.70;;;5.40;;
53299;SDS011;39187;48.476;8.310;2022-11-20T03:05:54;4.97;;;4.67;;
53299;SDS011;39187;48.476;8.310;2022-11-20T03:08:20;6.43;;;5.93;;
53299;SDS011;39187;48.476;8.310;2022-11-20T03:10:46;5.27;;;4.90;;
53299;SDS011;39187;48.476;8.310;2022-11-20T03:13:11;5.57;;;5.27;;
53299;SDS011;39187;48.476;8.310;2022-11-20T03:15:37;5.40;;;5.10;;
53299;SDS011;39187;48.476;8.310;2022-11-20T03:18:03;4.80;;;4.60;;
53299;SDS011;39187;48.476;8.310;2022-11-20T03:20:29;5.50;;;5.20;;
53299;SDS011;39187;48.476;8.310;2022-11-20T03:22:54;6.90;;;5.57;;
53299;SDS011;39187;48.476;8.310;2022-11-20T03:25:20;5.50;;;5.30;;
53299;SDS011;39187;48.476;8.310;2022-11-20T03:27:47;5.70;;;5.40;;
53299;SDS011;39187;48.476;8.310;2022-11-20T03:30:13;4.80;;;4.60;;
53299;SDS011;39187;48.476;8.310;2022-11-20T03:32:39;5.33;;;4.93;;
53299;SDS011;39187;48.476;8.310;2022-11-20T03:35:04;5.53;;;5.20;;
53299;SDS011;39187;48.476;8.310;2022-11-20T03:37:31;5.57;;;5.27;;
53299;SDS011;39187;48.476;8.310;2022-11-20T03:39:57;5.80;;;5.57;;
53299;SDS011;39187;48.476;8.310;2022-11-20T03:42:23;5.53;;;5.23;;
53299;SDS011;39187;48.476;8.310;2022-11-20T03:45:07;4.50;;;4.30;;
53299;SDS011;39187;48.476;8.310;2022-11-20T03:47:32;4.63;;;4.30;;
53299;SDS011;39187;48.476;8.310;2022-11-20T03:49:58;4.73;;;4.53;;
53299;SDS011;39187;48.476;8.310;2022-11-20T03:52:23;6.10;;;5.00;;
53299;SDS011;39187;48.476;8.310;2022-11-20T03:54:49;5.40;;;5.10;;
53299;SDS011;39187;48.476;8.310;2022-11-20T03:57:15;5.00;;;4.70;;
53299;SDS011;39187;48.476;8.310;2022-11-20T03:59:40;4.33;;;4.03;;
53299;SDS011;39187;48.476;8.310;2022-11-20T04:02:06;5.20;;;4.90;;
53299;SDS011;39187;48.476;8.310;2022-11-20T04:04:32;4.50;;;4.20;;
53299;SDS011;39187;48.476;8.310;2022-11-20T04:06:57;4.20;;;4.00;;
53299;SDS011;39187;48.476;8.310;2022-11-20T04:09:23;8.13;;;5.10;;
53299;SDS011;39187;48.476;8.310;2022-11-20T04:11:49;4.80;;;4.60;;
53299;SDS011;39187;48.476;8.310;2022-11-20T04:14:15;5.27;;;4.93;;
53299;SDS011;39187;48.476;8.310;2022-11-20T04:16:41;7.00;;;5.90;;
53299;SDS011;39187;48.476;8.310;2022-11-20T04:19:12;4.23;;;4.03;;
53299;SDS011;39187;48.476;8.310;2022-11-20T04:21:40;4.53;;;4.33;;
53299;SDS011;39187;48.476;8.310;2022-11-20T04:24:07;4.60;;;4.40;;
53299;SDS011;39187;48.476;8.310;2022-11-20T04:26:33;4.67;;;4.37;;
53299;SDS011;39187;48.476;8.310;2022-11-20T04:28:59;4.33;;;4.03;;
53299;SDS011;39187;48.476;8.310;2022-11-20T04:31:28;4.90;;;4.47;;
53299;SDS011;39187;48.476;8.310;2022-11-20T04:33:55;4.97;;;4.57;;
53299;SDS011;39187;48.476;8.310;2022-11-20T04:36:22;4.60;;;4.40;;
53299;SDS011;39187;48.476;8.310;2022-11-20T04:38:52;4.63;;;4.43;;
53299;SDS011;39187;48.476;8.310;2022-11-20T04:41:19;4.50;;;4.30;;
53299;SDS011;39187;48.476;8.310;2022-11-20T04:43:47;5.57;;;4.87;;
53299;SDS011;39187;48.476;8.310;2022-11-20T04:46:13;4.43;;;4.23;;
53299;SDS011;39187;48.476;8.310;2022-11-20T04:48:39;7.17;;;5.57;;
53299;SDS011;39187;48.476;8.310;2022-11-20T04:51:05;5.67;;;5.30;;
53299;SDS011;39187;48.476;8.310;2022-11-20T04:53:31;5.37;;;4.97;;
53299;SDS011;39187;48.476;8.310;2022-11-20T04:56:00;4.80;;;4.60;;
53299;SDS011;39187;48.476;8.310;2022-11-20T04:58:27;5.53;;;5.03;;
53299;SDS011;39187;48.476;8.310;2022-11-20T05:00:53;5.20;;;5.00;;
53299;SDS011;39187;48.476;8.310;2022-11-20T05:03:18;4.23;;;3.93;;
53299;SDS011;39187;48.476;8.310;2022-11-20T05:05:44;5.50;;;4.60;;
53299;SDS011;39187;48.476;8.310;2022-11-20T05:08:10;4.50;;;4.40;;
53299;SDS011;39187;48.476;8.310;2022-11-20T05:10:35;4.90;;;4.17;;
53299;SDS011;39187;48.476;8.310;2022-11-20T05:13:01;5.27;;;4.97;;
53299;SDS011;39187;48.476;8.310;2022-11-20T05:15:26;5.33;;;5.13;;
53299;SDS011;39187;48.476;8.310;2022-11-20T05:17:52;5.50;;;5.30;;
53299;SDS011;39187;48.476;8.310;2022-11-20T05:20:18;6.17;;;5.77;;
53299;SDS011;39187;48.476;8.310;2022-11-20T05:22:45;5.47;;;5.10;;
53299;SDS011;39187;48.476;8.310;2022-11-20T05:25:11;5.93;;;5.67;;
53299;SDS011;39187;48.476;8.310;2022-11-20T05:27:37;11.90;;;5.97;;
53299;SDS011;39187;48.476;8.310;2022-11-20T05:30:03;5.53;;;5.13;;
53299;SDS011;39187;48.476;8.310;2022-11-20T05:32:30;5.63;;;5.23;;
53299;SDS011;39187;48.476;8.310;2022-11-20T05:34:55;4.00;;;3.90;;
53299;SDS011;39187;48.476;8.310;2022-11-20T05:37:21;4.13;;;3.93;;
53299;SDS011;39187;48.476;8.310;2022-11-20T05:39:47;4.30;;;4.10;;
53299;SDS011;39187;48.476;8.310;2022-11-20T05:42:12;3.60;;;3.40;;
53299;SDS011;39187;48.476;8.310;2022-11-20T05:44:59;3.97;;;3.77;;
53299;SDS011;39187;48.476;8.310;2022-11-20T05:47:26;3.50;;;3.30;;
53299;SDS011;39187;48.476;8.310;2022-11-20T05:49:53;3.57;;;3.47;;
53299;SDS011;39187;48.476;8.310;2022-11-20T05:52:19;4.30;;;4.07;;
53299;SDS011;39187;48.476;8.310;2022-11-20T05:54:45;4.43;;;4.23;;
53299;SDS011;39187;48.476;8.310;2022-11-20T05:57:11;4.30;;;4.10;;
53299;SDS011;39187;48.476;8.310;2022-11-20T05:59:36;4.77;;;4.50;;
53299;SDS011;39187;48.476;8.310;2022-11-20T06:02:02;4.30;;;4.10;;
53299;SDS011;39187;48.476;8.310;2022-11-20T06:04:27;3.93;;;3.73;;
53299;SDS011;39187;48.476;8.310;2022-11-20T06:06:53;4.40;;;4.20;;
53299;SDS011;39187;48.476;8.310;2022-11-20T06:09:18;4.47;;;3.43;;
53299;SDS011;39187;48.476;8.310;2022-11-20T06:11:44;4.00;;;3.80;;
53299;SDS011;39187;48.476;8.310;2022-11-20T06:14:09;4.90;;;4.70;;
53299;SDS011;39187;48.476;8.310;2022-11-20T06:16:35;3.70;;;3.60;;
53299;SDS011;39187;48.476;8.310;2022-11-20T06:19:01;4.30;;;4.00;;
53299;SDS011;39187;48.476;8.310;2022-11-20T06:21:26;4.07;;;3.87;;
53299;SDS011;39187;48.476;8.310;2022-11-20T06:23:52;4.37;;;4.17;;
53299;SDS011;39187;48.476;8.310;2022-11-20T06:26:19;4.83;;;4.53;;
53299;SDS011;39187;48.476;8.310;2022-11-20T06:28:50;4.17;;;3.97;;
53299;SDS011;39187;48.476;8.310;2022-11-20T06:31:17;4.87;;;4.50;;
53299;SDS011;39187;48.476;8.310;2022-11-20T06:33:44;4.00;;;3.80;;
53299;SDS011;39187;48.476;8.310;2022-11-20T06:36:11;4.17;;;4.00;;
53299;SDS011;39187;48.476;8.310;2022-11-20T06:38:38;4.30;;;3.47;;
53299;SDS011;39187;48.476;8.310;2022-11-20T06:41:05;7.50;;;5.00;;
53299;SDS011;39187;48.476;8.310;2022-11-20T06:43:31;13.73;;;5.17;;
53299;SDS011;39187;48.476;8.310;2022-11-20T06:45:57;51.03;;;6.20;;
53299;SDS011;39187;48.476;8.310;2022-11-20T06:48:24;7.93;;;4.90;;
53299;SDS011;39187;48.476;8.310;2022-11-20T06:50:52;5.47;;;4.20;;
53299;SDS011;39187;48.476;8.310;2022-11-20T06:53:18;4.60;;;4.30;;
53299;SDS011;39187;48.476;8.310;2022-11-20T06:55:44;4.43;;;4.17;;
53299;SDS011;39187;48.476;8.310;2022-11-20T06:58:11;9.10;;;3.80;;
53299;SDS011;39187;48.476;8.310;2022-11-20T07:00:38;3.33;;;3.23;;
53299;SDS011;39187;48.476;8.310;2022-11-20T07:03:07;7.53;;;4.17;;
53299;SDS011;39187;48.476;8.310;2022-11-20T07:05:35;6.97;;;3.30;;
53299;SDS011;39187;48.476;8.310;2022-11-20T07:08:01;47.63;;;5.60;;
53299;SDS011;39187;48.476;8.310;2022-11-20T07:10:27;7.30;;;4.10;;
53299;SDS011;39187;48.476;8.310;2022-11-20T07:12:53;4.63;;;3.17;;
53299;SDS011;39187;48.476;8.310;2022-11-20T07:15:19;3.40;;;3.20;;
53299;SDS011;39187;48.476;8.310;2022-11-20T07:17:46;2.80;;;2.70;;
53299;SDS011;39187;48.476;8.310;2022-11-20T07:20:12;3.90;;;3.70;;
53299;SDS011;39187;48.476;8.310;2022-11-20T07:22:38;3.27;;;3.17;;
53299;SDS011;39187;48.476;8.310;2022-11-20T07:25:04;2.57;;;2.47;;
53299;SDS011;39187;48.476;8.310;2022-11-20T07:27:31;1.83;;;1.80;;
53299;SDS011;39187;48.476;8.310;2022-11-20T07:29:56;1.47;;;1.47;;
53299;SDS011;39187;48.476;8.310;2022-11-20T07:32:22;4.40;;;1.50;;
53299;SDS011;39187;48.476;8.310;2022-11-20T07:34:48;1.97;;;1.87;;
53299;SDS011;39187;48.476;8.310;2022-11-20T07:37:14;1.90;;;1.80;;
53299;SDS011;39187;48.476;8.310;2022-11-20T07:39:40;1.87;;;1.77;;
53299;SDS011;39187;48.476;8.310;2022-11-20T07:42:07;1.90;;;1.80;;
53299;SDS011;39187;48.476;8.310;2022-11-20T07:44:33;1.97;;;1.87;;
53299;SDS011;39187;48.476;8.310;2022-11-20T07:46:59;1.70;;;1.60;;
53299;SDS011;39187;48.476;8.310;2022-11-20T07:49:25;1.80;;;1.70;;
53299;SDS011;39187;48.476;8.310;2022-11-20T07:51:51;2.60;;;1.70;;
53299;SDS011;39187;48.476;8.310;2022-11-20T07:54:19;27.20;;;3.33;;
53299;SDS011;39187;48.476;8.310;2022-11-20T07:56:45;2.33;;;2.03;;
53299;SDS011;39187;48.476;8.310;2022-11-20T07:59:12;5.60;;;2.30;;
53299;SDS011;39187;48.476;8.310;2022-11-20T08:01:38;4.10;;;1.90;;
53299;SDS011;39187;48.476;8.310;2022-11-20T08:04:05;1.40;;;1.40;;
53299;SDS011;39187;48.476;8.310;2022-11-20T08:06:31;5.33;;;1.37;;
53299;SDS011;39187;48.476;8.310;2022-11-20T08:08:57;1.40;;;1.30;;
53299;SDS011;39187;48.476;8.310;2022-11-20T08:11:23;1.47;;;1.47;;
53299;SDS011;39187;48.476;8.310;2022-11-20T08:14:07;1.00;;;1.00;;
53299;SDS011;39187;48.476;8.310;2022-11-20T08:16:48;0.90;;;0.90;;
53299;SDS011;39187;48.476;8.310;2022-11-20T08:19:15;2.73;;;1.10;;
53299;SDS011;39187;48.476;8.310;2022-11-20T08:21:42;1.90;;;1.80;;
53299;SDS011;39187;48.476;8.310;2022-11-20T08:24:08;28.33;;;3.70;;
53299;SDS011;39187;48.476;8.310;2022-11-20T08:26:35;42.83;;;4.03;;
53299;SDS011;39187;48.476;8.310;2022-11-20T08:29:02;2.50;;;2.00;;
53299;SDS011;39187;48.476;8.310;2022-11-20T08:31:28;12.40;;;2.13;;
53299;SDS011;39187;48.476;8.310;2022-11-20T08:33:55;2.50;;;2.30;;
53299;SDS011;39187;48.476;8.310;2022-11-20T08:36:21;1.93;;;1.73;;
53299;SDS011;39187;48.476;8.310;2022-11-20T08:38:51;11.80;;;1.67;;
53299;SDS011;39187;48.476;8.310;2022-11-20T08:41:18;2.07;;;1.70;;
53299;SDS011;39187;48.476;8.310;2022-11-20T08:43:51;1.60;;;1.50;;
53299;SDS011;39187;48.476;8.310;2022-11-20T08:46:22;1.27;;;1.27;;
53299;SDS011;39187;48.476;8.310;2022-11-20T08:48:49;1.57;;;1.47;;
53299;SDS011;39187;48.476;8.310;2022-11-20T08:51:15;1.17;;;1.17;;
53299;SDS011;39187;48.476;8.310;2022-11-20T08:53:41;1.10;;;1.10;;
53299;SDS011;39187;48.476;8.310;2022-11-20T08:56:07;0.93;;;0.93;;
53299;SDS011;39187;48.476;8.310;2022-11-20T08:58:34;0.83;;;0.83;;
53299;SDS011;39187;48.476;8.310;2022-11-20T09:01:01;1.00;;;1.00;;
53299;SDS011;39187;48.476;8.310;2022-11-20T09:03:26;0.80;;;0.80;;
53299;SDS011;39187;48.476;8.310;2022-11-20T09:06:02;0.67;;;0.67;;
53299;SDS011;39187;48.476;8.310;2022-11-20T09:08:29;1.00;;;1.00;;
53299;SDS011;39187;48.476;8.310;2022-11-20T09:10:55;1.80;;;1.70;;
53299;SDS011;39187;48.476;8.310;2022-11-20T09:13:23;3.33;;;3.13;;
53299;SDS011;39187;48.476;8.310;2022-11-20T09:15:53;1.83;;;1.77;;
53299;SDS011;39187;48.476;8.310;2022-11-20T09:18:27;2.67;;;2.57;;
53299;SDS011;39187;48.476;8.310;2022-11-20T09:20:57;2.50;;;2.40;;
53299;SDS011;39187;48.476;8.310;2022-11-20T09:23:23;2.80;;;2.60;;
53299;SDS011;39187;48.476;8.310;2022-11-20T09:25:50;2.40;;;2.07;;
53299;SDS011;39187;48.476;8.310;2022-11-20T09:28:15;3.00;;;2.90;;
53299;SDS011;39187;48.476;8.310;2022-11-20T09:30:43;2.80;;;2.70;;
53299;SDS011;39187;48.476;8.310;2022-11-20T09:33:09;3.13;;;2.63;;
53299;SDS011;39187;48.476;8.310;2022-11-20T09:35:34;2.63;;;2.43;;
53299;SDS011;39187;48.476;8.310;2022-11-20T09:38:06;2.83;;;2.63;;
53299;SDS011;39187;48.476;8.310;2022-11-20T09:40:32;6.23;;;3.10;;
53299;SDS011;39187;48.476;8.310;2022-11-20T09:43:21;3.40;;;2.83;;
53299;SDS011;39187;48.476;8.310;2022-11-20T09:46:21;7.90;;;3.53;;
53299;SDS011;39187;48.476;8.310;2022-11-20T09:56:34;1.80;;;1.70;;
53299;SDS011;39187;48.476;8.310;2022-11-20T09:59:04;1.90;;;1.73;;
53299;SDS011;39187;48.476;8.310;2022-11-20T10:01:34;3.70;;;3.00;;
53299;SDS011;39187;48.476;8.310;2022-11-20T10:06:50;2.70;;;2.60;;
53299;SDS011;39187;48.476;8.310;2022-11-20T10:12:11;2.70;;;2.50;;
53299;SDS011;39187;48.476;8.310;2022-11-20T10:20:16;3.50;;;2.63;;
53299;SDS011;39187;48.476;8.310;2022-11-20T10:22:53;2.00;;;1.87;;
53299;SDS011;39187;48.476;8.310;2022-11-20T10:25:39;4.10;;;2.20;;
53299;SDS011;39187;48.476;8.310;2022-11-20T10:31:11;3.33;;;2.70;;
53299;SDS011;39187;48.476;8.310;2022-11-20T10:33:43;3.90;;;2.67;;
53299;SDS011;39187;48.476;8.310;2022-11-20T10:36:23;8.17;;;2.27;;
53299;SDS011;39187;48.476;8.310;2022-11-20T10:39:16;2.00;;;1.90;;
53299;SDS011;39187;48.476;8.310;2022-11-20T10:41:42;2.60;;;2.30;;
53299;SDS011;39187;48.476;8.310;2022-11-20T10:44:22;2.70;;;2.50;;
53299;SDS011;39187;48.476;8.310;2022-11-20T10:47:12;3.10;;;2.63;;
53299;SDS011;39187;48.476;8.310;2022-11-20T10:49:41;13.03;;;2.80;;
53299;SDS011;39187;48.476;8.310;2022-11-20T10:52:21;3.77;;;3.57;;
53299;SDS011;39187;48.476;8.310;2022-11-20T10:55:05;2.30;;;2.00;;
53299;SDS011;39187;48.476;8.310;2022-11-20T11:00:36;2.73;;;2.63;;
53299;SDS011;39187;48.476;8.310;2022-11-20T11:03:01;2.50;;;2.00;;
53299;SDS011;39187;48.476;8.310;2022-11-20T11:07:57;6.87;;;2.40;;
53299;SDS011;39187;48.476;8.310;2022-11-20T11:10:26;4.03;;;2.23;;
53299;SDS011;39187;48.476;8.310;2022-11-20T11:13:00;3.00;;;2.60;;
53299;SDS011;39187;48.476;8.310;2022-11-20T11:18:01;2.10;;;2.00;;
53299;SDS011;39187;48.476;8.310;2022-11-20T11:20:27;1.63;;;1.43;;
53299;SDS011;39187;48.476;8.310;2022-11-20T11:22:55;3.63;;;1.67;;
53299;SDS011;39187;48.476;8.310;2022-11-20T11:27:55;1.10;;;1.10;;
53299;SDS011;39187;48.476;8.310;2022-11-20T11:30:25;1.20;;;1.10;;
53299;SDS011;39187;48.476;8.310;2022-11-20T11:33:02;1.30;;;1.30;;
53299;SDS011;39187;48.476;8.310;2022-11-20T11:35:32;1.53;;;1.43;;
53299;SDS011;39187;48.476;8.310;2022-11-20T11:38:05;1.20;;;1.10;;
53299;SDS011;39187;48.476;8.310;2022-11-20T11:40:36;2.13;;;1.50;;
53299;SDS011;39187;48.476;8.310;2022-11-20T11:43:05;1.70;;;1.60;;
53299;SDS011;39187;48.476;8.310;2022-11-20T11:46:01;4.60;;;1.87;;
53299;SDS011;39187;48.476;8.310;2022-11-20T11:48:27;7.63;;;2.50;;
53299;SDS011;39187;48.476;8.310;2022-11-20T11:50:52;2.80;;;2.70;;
53299;SDS011;39187;48.476;8.310;2022-11-20T11:53:22;1.90;;;1.80;;
53299;SDS011;39187;48.476;8.310;2022-11-20T12:00:54;3.80;;;3.43;;
53299;SDS011;39187;48.476;8.310;2022-11-20T12:03:35;3.40;;;3.07;;
53299;SDS011;39187;48.476;8.310;2022-11-20T12:06:08;2.67;;;2.40;;
53299;SDS011;39187;48.476;8.310;2022-11-20T12:08:44;3.93;;;2.77;;
53299;SDS011;39187;48.476;8.310;2022-11-20T12:16:41;4.73;;;2.93;;
53299;SDS011;39187;48.476;8.310;2022-11-20T12:19:08;4.87;;;2.73;;
53299;SDS011;39187;48.476;8.310;2022-11-20T12:35:05;5.83;;;2.23;;
53299;SDS011;39187;48.476;8.310;2022-11-20T12:40:55;2.10;;;2.00;;
53299;SDS011;39187;48.476;8.310;2022-11-20T12:44:07;2.60;;;2.40;;
53299;SDS011;39187;48.476;8.310;2022-11-20T12:50:03;2.53;;;2.43;;
53299;SDS011;39187;48.476;8.310;2022-11-20T12:52:56;2.93;;;2.73;;
53299;SDS011;39187;48.476;8.310;2022-11-20T12:55:33;5.80;;;3.37;;
53299;SDS011;39187;48.476;8.310;2022-11-20T13:01:25;5.33;;;2.53;;
53299;SDS011;39187;48.476;8.310;2022-11-20T13:06:38;3.07;;;2.87;;
53299;SDS011;39187;48.476;8.310;2022-11-20T13:09:08;2.70;;;2.60;;
53299;SDS011;39187;48.476;8.310;2022-11-20T13:11:41;3.10;;;1.97;;
53299;SDS011;39187;48.476;8.310;2022-11-20T13:16:52;2.47;;;2.30;;
53299;SDS011;39187;48.476;8.310;2022-11-20T13:19:24;5.87;;;2.30;;
53299;SDS011;39187;48.476;8.310;2022-11-20T13:21:51;7.07;;;2.73;;
53299;SDS011;39187;48.476;8.310;2022-11-20T13:29:28;2.90;;;2.70;;
53299;SDS011;39187;48.476;8.310;2022-11-20T13:32:12;4.50;;;3.10;;
53299;SDS011;39187;48.476;8.310;2022-11-20T13:35:02;3.07;;;2.80;;
53299;SDS011;39187;48.476;8.310;2022-11-20T13:37:29;6.83;;;3.43;;
53299;SDS011;39187;48.476;8.310;2022-11-20T13:43:01;3.10;;;2.90;;
53299;SDS011;39187;48.476;8.310;2022-11-20T13:45:28;2.90;;;2.50;;
53299;SDS011;39187;48.476;8.310;2022-11-20T13:47:56;3.17;;;2.97;;
53299;SDS011;39187;48.476;8.310;2022-11-20T13:50:37;4.37;;;3.97;;
53299;SDS011;39187;48.476;8.310;2022-11-20T13:53:18;3.97;;;3.67;;
53299;SDS011;39187;48.476;8.310;2022-11-20T13:56:01;2.90;;;2.80;;
53299;SDS011;39187;48.476;8.310;2022-11-20T14:01:10;4.00;;;3.37;;
53299;SDS011;39187;48.476;8.310;2022-11-20T14:03:45;3.33;;;3.13;;
53299;SDS011;39187;48.476;8.310;2022-11-20T14:08:58;3.30;;;3.20;;
53299;SDS011;39187;48.476;8.310;2022-11-20T14:11:25;3.93;;;3.83;;
53299;SDS011;39187;48.476;8.310;2022-11-20T14:14:00;3.50;;;3.20;;
53299;SDS011;39187;48.476;8.310;2022-11-20T14:16:31;3.67;;;3.37;;
53299;SDS011;39187;48.476;8.310;2022-11-20T14:19:17;3.33;;;3.03;;
53299;SDS011;39187;48.476;8.310;2022-11-20T14:21:44;3.43;;;3.27;;
53299;SDS011;39187;48.476;8.310;2022-11-20T14:24:21;4.03;;;3.73;;
53299;SDS011;39187;48.476;8.310;2022-11-20T14:26:48;3.60;;;3.50;;
53299;SDS011;39187;48.476;8.310;2022-11-20T14:29:16;3.33;;;3.03;;
53299;SDS011;39187;48.476;8.310;2022-11-20T14:31:45;3.13;;;3.03;;
53299;SDS011;39187;48.476;8.310;2022-11-20T14:34:14;3.20;;;3.00;;
53299;SDS011;39187;48.476;8.310;2022-11-20T14:36:43;2.67;;;2.57;;
53299;SDS011;39187;48.476;8.310;2022-11-20T14:39:31;5.40;;;2.37;;
53299;SDS011;39187;48.476;8.310;2022-11-20T14:42:00;5.07;;;3.40;;
53299;SDS011;39187;48.476;8.310;2022-11-20T14:44:27;3.20;;;3.10;;
53299;SDS011;39187;48.476;8.310;2022-11-20T14:46:56;3.10;;;3.00;;
53299;SDS011;39187;48.476;8.310;2022-11-20T14:49:23;3.43;;;3.17;;
53299;SDS011;39187;48.476;8.310;2022-11-20T14:51:58;3.80;;;3.50;;
53299;SDS011;39187;48.476;8.310;2022-11-20T14:54:42;5.50;;;3.60;;
53299;SDS011;39187;48.476;8.310;2022-11-20T14:57:18;3.50;;;3.03;;
53299;SDS011;39187;48.476;8.310;2022-11-20T15:02:38;3.10;;;2.93;;
53299;SDS011;39187;48.476;8.310;2022-11-20T15:05:08;3.40;;;3.10;;
53299;SDS011;39187;48.476;8.310;2022-11-20T15:07:35;3.57;;;3.20;;
53299;SDS011;39187;48.476;8.310;2022-11-20T15:12:32;5.47;;;3.40;;
53299;SDS011;39187;48.476;8.310;2022-11-20T15:15:01;3.23;;;3.03;;
53299;SDS011;39187;48.476;8.310;2022-11-20T15:17:28;4.27;;;3.97;;
53299;SDS011;39187;48.476;8.310;2022-11-20T15:19:56;3.57;;;3.37;;
53299;SDS011;39187;48.476;8.310;2022-11-20T15:22:22;10.73;;;3.53;;
53299;SDS011;39187;48.476;8.310;2022-11-20T15:24:49;3.53;;;3.33;;
53299;SDS011;39187;48.476;8.310;2022-11-20T15:27:14;6.30;;;4.17;;
53299;SDS011;39187;48.476;8.310;2022-11-20T15:29:41;3.57;;;3.27;;
53299;SDS011;39187;48.476;8.310;2022-11-20T15:32:07;3.00;;;2.90;;
53299;SDS011;39187;48.476;8.310;2022-11-20T15:34:34;2.90;;;2.80;;
53299;SDS011;39187;48.476;8.310;2022-11-20T15:36:59;3.03;;;2.83;;
53299;SDS011;39187;48.476;8.310;2022-11-20T15:39:25;3.23;;;3.13;;
53299;SDS011;39187;48.476;8.310;2022-11-20T15:41:50;4.57;;;4.37;;
53299;SDS011;39187;48.476;8.310;2022-11-20T15:44:16;4.67;;;4.27;;
53299;SDS011;39187;48.476;8.310;2022-11-20T15:46:41;3.80;;;3.50;;
53299;SDS011;39187;48.476;8.310;2022-11-20T15:49:14;3.30;;;2.90;;
53299;SDS011;39187;48.476;8.310;2022-11-20T15:51:41;4.47;;;4.27;;
53299;SDS011;39187;48.476;8.310;2022-11-20T15:54:42;3.30;;;3.17;;
53299;SDS011;39187;48.476;8.310;2022-11-20T15:57:00;3.03;;;2.83;;
53299;SDS011;39187;48.476;8.310;2022-11-20T15:59:27;3.67;;;3.50;;
53299;SDS011;39187;48.476;8.310;2022-11-20T16:01:53;3.07;;;2.97;;
53299;SDS011;39187;48.476;8.310;2022-11-20T16:04:19;8.27;;;3.60;;
53299;SDS011;39187;48.476;8.310;2022-11-20T16:06:44;3.33;;;3.10;;
53299;SDS011;39187;48.476;8.310;2022-11-20T16:09:10;2.97;;;2.87;;
53299;SDS011;39187;48.476;8.310;2022-11-20T16:11:36;3.23;;;3.07;;
53299;SDS011;39187;48.476;8.310;2022-11-20T16:14:05;7.67;;;2.67;;
53299;SDS011;39187;48.476;8.310;2022-11-20T16:16:49;2.97;;;2.87;;
53299;SDS011;39187;48.476;8.310;2022-11-20T16:19:16;2.93;;;2.73;;
53299;SDS011;39187;48.476;8.310;2022-11-20T16:21:43;4.83;;;3.50;;
53299;SDS011;39187;48.476;8.310;2022-11-20T16:24:11;2.67;;;2.57;;
53299;SDS011;39187;48.476;8.310;2022-11-20T16:26:38;3.07;;;2.80;;
53299;SDS011;39187;48.476;8.310;2022-11-20T16:29:04;4.57;;;3.37;;
53299;SDS011;39187;48.476;8.310;2022-11-20T16:31:30;3.23;;;3.03;;
53299;SDS011;39187;48.476;8.310;2022-11-20T16:33:58;2.93;;;2.60;;
53299;SDS011;39187;48.476;8.310;2022-11-20T16:36:26;3.10;;;2.90;;
53299;SDS011;39187;48.476;8.310;2022-11-20T16:39:00;2.63;;;2.43;;